sensor_id;sensor_type;location;lat;lon;timestamp;pressure;altitude;pressure_sealevel;temperature;humidity
69570;BME280;56781;42.292;23.146;2023-03-02T00:01:35;95854.63;;;4.23;100.00
69570;BME280;56781;42.292;23.146;2023-03-02T00:04:07;95836.13;;;4.28;100.00
69570;BME280;56781;42.292;23.146;2023-03-02T00:06:37;95850.13;;;4.51;100.00
69570;BME280;56781;42.292;23.146;2023-03-02T00:09:05;95846.03;;;4.38;100.00
69570;BME280;56781;42.292;23.146;2023-03-02T00:11:34;95869.16;;;4.48;100.00
69570;BME280;56781;42.292;23.146;2023-03-02T00:14:02;95857.47;;;4.43;100.00
69570;BME280;56781;42.292;23.146;2023-03-02T00:16:29;95869.81;;;4.60;100.00
69570;BME280;56781;42.292;23.146;2023-03-02T00:18:56;95840.31;;;4.51;100.00
69570;BME280;56781;42.292;23.146;2023-03-02T00:21:24;95868.91;;;4.81;100.00
69570;BME280;56781;42.292;23.146;2023-03-02T00:23:52;95861.72;;;4.77;100.00
69570;BME280;56781;42.292;23.146;2023-03-02T00:26:19;95867.75;;;4.67;100.00
69570;BME280;56781;42.292;23.146;2023-03-02T00:28:47;95829.41;;;4.48;100.00
69570;BME280;56781;42.292;23.146;2023-03-02T00:31:14;95825.16;;;4.47;100.00
69570;BME280;56781;42.292;23.146;2023-03-02T00:33:41;95806.59;;;4.47;100.00
69570;BME280;56781;42.292;23.146;2023-03-02T00:36:18;95818.31;;;4.51;100.00
69570;BME280;56781;42.292;23.146;2023-03-02T00:38:46;95814.69;;;4.62;100.00
69570;BME280;56781;42.292;23.146;2023-03-02T00:41:15;95810.38;;;4.56;100.00
69570;BME280;56781;42.292;23.146;2023-03-02T00:43:42;95820.66;;;4.47;100.00
69570;BME280;56781;42.292;23.146;2023-03-02T00:46:11;95808.41;;;4.41;100.00
69570;BME280;56781;42.292;23.146;2023-03-02T00:48:39;95813.44;;;4.37;100.00
69570;BME280;56781;42.292;23.146;2023-03-02T00:51:07;95800.13;;;4.32;100.00
69570;BME280;56781;42.292;23.146;2023-03-02T00:53:35;95797.03;;;4.40;100.00
69570;BME280;56781;42.292;23.146;2023-03-02T00:56:03;95768.75;;;4.19;100.00
69570;BME280;56781;42.292;23.146;2023-03-02T00:58:31;95795.34;;;4.29;100.00
69570;BME280;56781;42.292;23.146;2023-03-02T01:01:04;95784.47;;;3.98;100.00
69570;BME280;56781;42.292;23.146;2023-03-02T01:03:32;95806.66;;;4.19;100.00
69570;BME280;56781;42.292;23.146;2023-03-02T01:05:59;95757.03;;;3.77;100.00
69570;BME280;56781;42.292;23.146;2023-03-02T01:08:26;95767.28;;;3.74;100.00
69570;BME280;56781;42.292;23.146;2023-03-02T01:10:54;95752.31;;;3.58;100.00
69570;BME280;56781;42.292;23.146;2023-03-02T01:13:21;95764.50;;;3.59;100.00
69570;BME280;56781;42.292;23.146;2023-03-02T01:15:48;95801.81;;;3.84;100.00
69570;BME280;56781;42.292;23.146;2023-03-02T01:18:15;95785.69;;;3.86;100.00
69570;BME280;56781;42.292;23.146;2023-03-02T01:20:42;95779.56;;;3.80;100.00
69570;BME280;56781;42.292;23.146;2023-03-02T01:23:09;95786.03;;;3.94;100.00
69570;BME280;56781;42.292;23.146;2023-03-02T01:25:36;95773.38;;;4.02;100.00
69570;BME280;56781;42.292;23.146;2023-03-02T01:28:05;95794.66;;;4.12;100.00
69570;BME280;56781;42.292;23.146;2023-03-02T01:30:32;95796.28;;;4.13;100.00
69570;BME280;56781;42.292;23.146;2023-03-02T01:32:59;95767.50;;;3.94;100.00
69570;BME280;56781;42.292;23.146;2023-03-02T01:35:26;95777.38;;;4.04;100.00
69570;BME280;56781;42.292;23.146;2023-03-02T01:37:54;95772.34;;;4.03;100.00
69570;BME280;56781;42.292;23.146;2023-03-02T01:40:21;95771.78;;;4.00;100.00
69570;BME280;56781;42.292;23.146;2023-03-02T01:42:56;95772.06;;;4.04;100.00
69570;BME280;56781;42.292;23.146;2023-03-02T01:48:22;95755.88;;;4.00;100.00
69570;BME280;56781;42.292;23.146;2023-03-02T01:50:52;95760.06;;;3.91;100.00
69570;BME280;56781;42.292;23.146;2023-03-02T01:53:21;95757.41;;;3.91;100.00
69570;BME280;56781;42.292;23.146;2023-03-02T01:55:49;95752.13;;;3.91;100.00
69570;BME280;56781;42.292;23.146;2023-03-02T01:58:16;95761.19;;;4.00;100.00
69570;BME280;56781;42.292;23.146;2023-03-02T02:00:44;95757.59;;;3.85;100.00
69570;BME280;56781;42.292;23.146;2023-03-02T02:03:15;95745.59;;;3.77;100.00
69570;BME280;56781;42.292;23.146;2023-03-02T02:06:39;95761.41;;;3.94;100.00
69570;BME280;56781;42.292;23.146;2023-03-02T02:08:45;95781.06;;;4.03;100.00
69570;BME280;56781;42.292;23.146;2023-03-02T02:11:13;95785.63;;;4.08;100.00
69570;BME280;56781;42.292;23.146;2023-03-02T02:13:41;95768.13;;;4.07;100.00
69570;BME280;56781;42.292;23.146;2023-03-02T02:16:09;95770.25;;;4.10;100.00
69570;BME280;56781;42.292;23.146;2023-03-02T02:18:38;95783.34;;;4.21;100.00
69570;BME280;56781;42.292;23.146;2023-03-02T02:21:07;95754.09;;;4.06;100.00
69570;BME280;56781;42.292;23.146;2023-03-02T02:24:05;95784.19;;;4.27;100.00
69570;BME280;56781;42.292;23.146;2023-03-02T02:26:38;95745.03;;;4.34;100.00
69570;BME280;56781;42.292;23.146;2023-03-02T02:29:14;95738.63;;;4.30;100.00
69570;BME280;56781;42.292;23.146;2023-03-02T02:31:59;95741.75;;;4.22;100.00
69570;BME280;56781;42.292;23.146;2023-03-02T02:34:34;95732.31;;;3.99;100.00
69570;BME280;56781;42.292;23.146;2023-03-02T02:37:20;95731.50;;;3.98;100.00
69570;BME280;56781;42.292;23.146;2023-03-02T02:39:48;95769.66;;;4.30;100.00
69570;BME280;56781;42.292;23.146;2023-03-02T02:42:33;95744.66;;;4.20;100.00
69570;BME280;56781;42.292;23.146;2023-03-02T02:45:04;95735.88;;;4.15;100.00
69570;BME280;56781;42.292;23.146;2023-03-02T02:47:32;95733.69;;;4.07;100.00
69570;BME280;56781;42.292;23.146;2023-03-02T02:50:00;95742.97;;;4.09;100.00
69570;BME280;56781;42.292;23.146;2023-03-02T02:52:28;95740.66;;;4.18;100.00
69570;BME280;56781;42.292;23.146;2023-03-02T02:54:56;95732.75;;;4.23;100.00
69570;BME280;56781;42.292;23.146;2023-03-02T02:57:27;95766.88;;;4.52;100.00
69570;BME280;56781;42.292;23.146;2023-03-02T02:59:58;95740.78;;;4.33;100.00
69570;BME280;56781;42.292;23.146;2023-03-02T03:02:28;95731.44;;;4.26;100.00
69570;BME280;56781;42.292;23.146;2023-03-02T03:04:56;95750.91;;;4.41;100.00
69570;BME280;56781;42.292;23.146;2023-03-02T03:07:30;95746.06;;;4.33;100.00
69570;BME280;56781;42.292;23.146;2023-03-02T03:10:04;95741.53;;;4.29;100.00
69570;BME280;56781;42.292;23.146;2023-03-02T03:12:34;95739.84;;;4.17;100.00
69570;BME280;56781;42.292;23.146;2023-03-02T03:15:03;95746.22;;;4.16;100.00
69570;BME280;56781;42.292;23.146;2023-03-02T03:17:30;95767.22;;;4.28;100.00
69570;BME280;56781;42.292;23.146;2023-03-02T03:19:57;95764.53;;;4.23;100.00
69570;BME280;56781;42.292;23.146;2023-03-02T03:22:38;95736.78;;;3.98;100.00
69570;BME280;56781;42.292;23.146;2023-03-02T03:25:05;95734.16;;;3.98;100.00
69570;BME280;56781;42.292;23.146;2023-03-02T03:27:32;95745.28;;;4.00;100.00
69570;BME280;56781;42.292;23.146;2023-03-02T03:30:00;95766.06;;;4.14;100.00
69570;BME280;56781;42.292;23.146;2023-03-02T03:32:27;95753.25;;;4.00;100.00
69570;BME280;56781;42.292;23.146;2023-03-02T03:34:55;95753.19;;;3.95;100.00
69570;BME280;56781;42.292;23.146;2023-03-02T03:37:22;95755.13;;;4.05;100.00
69570;BME280;56781;42.292;23.146;2023-03-02T03:39:49;95775.66;;;4.20;100.00
69570;BME280;56781;42.292;23.146;2023-03-02T03:42:16;95743.47;;;4.06;100.00
69570;BME280;56781;42.292;23.146;2023-03-02T03:44:44;95769.94;;;4.33;100.00
69570;BME280;56781;42.292;23.146;2023-03-02T03:47:11;95745.34;;;4.06;100.00
69570;BME280;56781;42.292;23.146;2023-03-02T03:49:38;95731.31;;;4.05;100.00
69570;BME280;56781;42.292;23.146;2023-03-02T03:52:05;95739.53;;;4.09;100.00
69570;BME280;56781;42.292;23.146;2023-03-02T03:54:33;95748.28;;;4.09;100.00
69570;BME280;56781;42.292;23.146;2023-03-02T03:57:00;95759.94;;;4.08;100.00
69570;BME280;56781;42.292;23.146;2023-03-02T03:59:27;95767.59;;;4.10;100.00
69570;BME280;56781;42.292;23.146;2023-03-02T04:01:56;95738.03;;;3.91;100.00
69570;BME280;56781;42.292;23.146;2023-03-02T04:04:29;95771.09;;;4.10;100.00
69570;BME280;56781;42.292;23.146;2023-03-02T04:06:57;95768.72;;;4.14;100.00
69570;BME280;56781;42.292;23.146;2023-03-02T04:09:25;95750.03;;;3.98;100.00
69570;BME280;56781;42.292;23.146;2023-03-02T04:11:54;95731.31;;;4.05;100.00
69570;BME280;56781;42.292;23.146;2023-03-02T04:14:23;95743.84;;;4.20;100.00
69570;BME280;56781;42.292;23.146;2023-03-02T04:16:51;95747.56;;;4.19;100.00
69570;BME280;56781;42.292;23.146;2023-03-02T04:19:18;95757.41;;;4.24;100.00
69570;BME280;56781;42.292;23.146;2023-03-02T04:21:48;95740.31;;;4.09;100.00
69570;BME280;56781;42.292;23.146;2023-03-02T04:24:16;95742.41;;;4.02;100.00
69570;BME280;56781;42.292;23.146;2023-03-02T04:26:45;95741.09;;;4.05;100.00
69570;BME280;56781;42.292;23.146;2023-03-02T04:29:12;95750.22;;;4.19;100.00
69570;BME280;56781;42.292;23.146;2023-03-02T04:31:40;95740.13;;;4.16;100.00
69570;BME280;56781;42.292;23.146;2023-03-02T04:34:07;95736.94;;;4.14;100.00
69570;BME280;56781;42.292;23.146;2023-03-02T04:36:37;95766.72;;;4.31;100.00
69570;BME280;56781;42.292;23.146;2023-03-02T04:39:05;95750.19;;;4.14;100.00
69570;BME280;56781;42.292;23.146;2023-03-02T04:41:32;95735.75;;;3.99;100.00
69570;BME280;56781;42.292;23.146;2023-03-02T04:43:59;95747.44;;;4.04;100.00
69570;BME280;56781;42.292;23.146;2023-03-02T04:46:27;95751.75;;;4.15;100.00
69570;BME280;56781;42.292;23.146;2023-03-02T04:48:54;95742.56;;;4.22;100.00
69570;BME280;56781;42.292;23.146;2023-03-02T04:51:25;95764.38;;;4.35;100.00
69570;BME280;56781;42.292;23.146;2023-03-02T04:53:54;95766.94;;;4.25;100.00
69570;BME280;56781;42.292;23.146;2023-03-02T04:56:22;95742.09;;;3.98;100.00
69570;BME280;56781;42.292;23.146;2023-03-02T04:58:49;95746.31;;;3.94;100.00
69570;BME280;56781;42.292;23.146;2023-03-02T05:01:18;95750.00;;;3.93;100.00
69570;BME280;56781;42.292;23.146;2023-03-02T05:03:45;95738.41;;;3.99;100.00
69570;BME280;56781;42.292;23.146;2023-03-02T05:06:13;95748.00;;;4.06;100.00
69570;BME280;56781;42.292;23.146;2023-03-02T05:08:42;95749.00;;;3.99;100.00
69570;BME280;56781;42.292;23.146;2023-03-02T05:11:11;95766.34;;;4.17;100.00
69570;BME280;56781;42.292;23.146;2023-03-02T05:13:53;95736.28;;;4.02;100.00
69570;BME280;56781;42.292;23.146;2023-03-02T05:16:21;95740.47;;;3.92;100.00
69570;BME280;56781;42.292;23.146;2023-03-02T05:18:49;95731.44;;;3.88;100.00
69570;BME280;56781;42.292;23.146;2023-03-02T05:21:17;95730.31;;;3.84;100.00
69570;BME280;56781;42.292;23.146;2023-03-02T05:23:45;95744.41;;;3.90;100.00
69570;BME280;56781;42.292;23.146;2023-03-02T05:26:13;95763.84;;;4.00;100.00
69570;BME280;56781;42.292;23.146;2023-03-02T05:28:42;95745.25;;;3.95;100.00
69570;BME280;56781;42.292;23.146;2023-03-02T05:31:17;95742.97;;;4.09;100.00
69570;BME280;56781;42.292;23.146;2023-03-02T05:33:45;95776.44;;;4.20;100.00
69570;BME280;56781;42.292;23.146;2023-03-02T05:36:12;95761.88;;;4.23;100.00
69570;BME280;56781;42.292;23.146;2023-03-02T05:38:39;95769.78;;;4.18;100.00
69570;BME280;56781;42.292;23.146;2023-03-02T05:41:06;95769.72;;;4.08;100.00
69570;BME280;56781;42.292;23.146;2023-03-02T05:43:34;95755.25;;;4.20;100.00
69570;BME280;56781;42.292;23.146;2023-03-02T05:46:02;95769.38;;;4.31;100.00
69570;BME280;56781;42.292;23.146;2023-03-02T05:48:29;95764.72;;;4.43;100.00
69570;BME280;56781;42.292;23.146;2023-03-02T05:50:57;95763.25;;;4.63;100.00
69570;BME280;56781;42.292;23.146;2023-03-02T05:53:24;95775.50;;;4.74;100.00
69570;BME280;56781;42.292;23.146;2023-03-02T05:55:52;95757.34;;;4.56;100.00
69570;BME280;56781;42.292;23.146;2023-03-02T05:58:19;95754.69;;;4.56;100.00
69570;BME280;56781;42.292;23.146;2023-03-02T06:00:47;95777.56;;;4.62;100.00
69570;BME280;56781;42.292;23.146;2023-03-02T06:03:15;95765.81;;;4.53;100.00
69570;BME280;56781;42.292;23.146;2023-03-02T06:05:43;95756.00;;;4.53;100.00
69570;BME280;56781;42.292;23.146;2023-03-02T06:08:10;95775.94;;;4.61;100.00
69570;BME280;56781;42.292;23.146;2023-03-02T06:10:37;95763.78;;;4.65;100.00
69570;BME280;56781;42.292;23.146;2023-03-02T06:13:04;95779.22;;;4.73;100.00
69570;BME280;56781;42.292;23.146;2023-03-02T06:15:31;95782.47;;;4.85;100.00
69570;BME280;56781;42.292;23.146;2023-03-02T06:17:58;95763.28;;;4.68;100.00
69570;BME280;56781;42.292;23.146;2023-03-02T06:20:25;95774.94;;;4.72;100.00
69570;BME280;56781;42.292;23.146;2023-03-02T06:22:53;95786.19;;;4.84;100.00
69570;BME280;56781;42.292;23.146;2023-03-02T06:25:22;95795.22;;;4.94;100.00
69570;BME280;56781;42.292;23.146;2023-03-02T06:27:50;95788.28;;;4.82;100.00
69570;BME280;56781;42.292;23.146;2023-03-02T06:30:21;95794.22;;;5.00;100.00
69570;BME280;56781;42.292;23.146;2023-03-02T06:32:49;95790.81;;;5.09;100.00
69570;BME280;56781;42.292;23.146;2023-03-02T06:35:17;95786.94;;;5.27;100.00
69570;BME280;56781;42.292;23.146;2023-03-02T06:37:44;95792.78;;;5.40;100.00
69570;BME280;56781;42.292;23.146;2023-03-02T06:40:12;95798.19;;;5.60;100.00
69570;BME280;56781;42.292;23.146;2023-03-02T06:42:40;95779.84;;;5.59;100.00
69570;BME280;56781;42.292;23.146;2023-03-02T06:45:09;95785.22;;;5.74;100.00
69570;BME280;56781;42.292;23.146;2023-03-02T06:47:36;95789.78;;;5.94;100.00
69570;BME280;56781;42.292;23.146;2023-03-02T06:50:04;95789.03;;;6.09;100.00
69570;BME280;56781;42.292;23.146;2023-03-02T06:52:31;95787.97;;;6.51;100.00
69570;BME280;56781;42.292;23.146;2023-03-02T06:54:59;95784.75;;;6.74;100.00
69570;BME280;56781;42.292;23.146;2023-03-02T06:57:26;95798.28;;;7.08;98.92
69570;BME280;56781;42.292;23.146;2023-03-02T07:00:00;95774.31;;;7.08;98.15
69570;BME280;56781;42.292;23.146;2023-03-02T07:02:29;95781.66;;;7.37;97.31
69570;BME280;56781;42.292;23.146;2023-03-02T07:04:57;95779.47;;;7.49;95.47
69570;BME280;56781;42.292;23.146;2023-03-02T07:07:24;95807.41;;;7.57;94.64
69570;BME280;56781;42.292;23.146;2023-03-02T07:09:51;95789.88;;;7.46;94.48
69570;BME280;56781;42.292;23.146;2023-03-02T07:12:18;95801.28;;;7.51;95.07
69570;BME280;56781;42.292;23.146;2023-03-02T07:14:45;95792.84;;;7.34;94.56
69570;BME280;56781;42.292;23.146;2023-03-02T07:17:12;95779.56;;;7.24;95.87
69570;BME280;56781;42.292;23.146;2023-03-02T07:19:39;95809.94;;;7.13;97.23
69570;BME280;56781;42.292;23.146;2023-03-02T07:22:06;95791.88;;;7.04;97.14
69570;BME280;56781;42.292;23.146;2023-03-02T07:24:33;95782.78;;;7.16;96.59
69570;BME280;56781;42.292;23.146;2023-03-02T07:27:00;95804.53;;;7.38;96.38
69570;BME280;56781;42.292;23.146;2023-03-02T07:29:28;95784.31;;;7.32;95.29
69570;BME280;56781;42.292;23.146;2023-03-02T07:31:55;95787.44;;;7.54;95.27
69570;BME280;56781;42.292;23.146;2023-03-02T07:34:25;95776.75;;;7.60;91.53
69570;BME280;56781;42.292;23.146;2023-03-02T07:36:53;95786.41;;;7.45;91.51
69570;BME280;56781;42.292;23.146;2023-03-02T07:39:20;95779.88;;;7.17;91.94
69570;BME280;56781;42.292;23.146;2023-03-02T07:41:47;95786.38;;;7.55;90.84
69570;BME280;56781;42.292;23.146;2023-03-02T07:44:14;95789.47;;;7.73;91.18
69570;BME280;56781;42.292;23.146;2023-03-02T07:46:41;95777.91;;;7.93;90.97
69570;BME280;56781;42.292;23.146;2023-03-02T07:49:09;95781.13;;;8.29;89.72
69570;BME280;56781;42.292;23.146;2023-03-02T07:51:36;95799.75;;;8.34;86.48
69570;BME280;56781;42.292;23.146;2023-03-02T07:54:03;95797.09;;;8.34;88.05
69570;BME280;56781;42.292;23.146;2023-03-02T07:56:30;95783.41;;;8.46;88.82
69570;BME280;56781;42.292;23.146;2023-03-02T07:58:57;95778.38;;;8.45;84.14
69570;BME280;56781;42.292;23.146;2023-03-02T08:01:25;95787.53;;;8.28;87.31
69570;BME280;56781;42.292;23.146;2023-03-02T08:03:52;95805.44;;;8.62;86.15
69570;BME280;56781;42.292;23.146;2023-03-02T08:06:19;95774.69;;;8.30;87.78
69570;BME280;56781;42.292;23.146;2023-03-02T08:08:47;95775.19;;;8.37;88.12
69570;BME280;56781;42.292;23.146;2023-03-02T08:11:16;95763.59;;;8.18;89.27
69570;BME280;56781;42.292;23.146;2023-03-02T08:13:44;95759.19;;;8.37;86.68
69570;BME280;56781;42.292;23.146;2023-03-02T08:16:13;95763.69;;;8.47;86.20
69570;BME280;56781;42.292;23.146;2023-03-02T08:18:41;95775.50;;;8.65;86.66
69570;BME280;56781;42.292;23.146;2023-03-02T08:21:13;95755.25;;;8.64;83.59
69570;BME280;56781;42.292;23.146;2023-03-02T08:23:42;95769.81;;;9.01;84.17
69570;BME280;56781;42.292;23.146;2023-03-02T08:26:09;95790.88;;;9.31;80.24
69570;BME280;56781;42.292;23.146;2023-03-02T08:28:40;95768.25;;;9.48;79.86
69570;BME280;56781;42.292;23.146;2023-03-02T08:31:08;95761.19;;;9.95;79.83
69570;BME280;56781;42.292;23.146;2023-03-02T08:33:36;95774.50;;;10.00;77.99
69570;BME280;56781;42.292;23.146;2023-03-02T08:36:06;95750.50;;;9.95;76.65
69570;BME280;56781;42.292;23.146;2023-03-02T08:38:34;95774.63;;;10.28;77.95
69570;BME280;56781;42.292;23.146;2023-03-02T08:41:03;95761.31;;;10.23;77.90
69570;BME280;56781;42.292;23.146;2023-03-02T08:43:30;95773.97;;;10.17;79.21
69570;BME280;56781;42.292;23.146;2023-03-02T08:45:58;95756.28;;;9.64;79.84
69570;BME280;56781;42.292;23.146;2023-03-02T08:48:26;95763.84;;;9.76;79.42
69570;BME280;56781;42.292;23.146;2023-03-02T08:51:07;95752.50;;;9.65;81.77
69570;BME280;56781;42.292;23.146;2023-03-02T08:53:38;95737.97;;;9.71;80.63
69570;BME280;56781;42.292;23.146;2023-03-02T08:58:41;95775.63;;;9.56;79.57
69570;BME280;56781;42.292;23.146;2023-03-02T09:01:18;95767.69;;;9.27;79.94
69570;BME280;56781;42.292;23.146;2023-03-02T09:03:46;95804.72;;;9.33;79.75
69570;BME280;56781;42.292;23.146;2023-03-02T09:06:13;95779.09;;;9.08;81.39
69570;BME280;56781;42.292;23.146;2023-03-02T09:08:40;95800.72;;;9.12;80.49
69570;BME280;56781;42.292;23.146;2023-03-02T09:11:07;95777.53;;;8.78;80.11
69570;BME280;56781;42.292;23.146;2023-03-02T09:13:35;95800.81;;;8.73;82.09
69570;BME280;56781;42.292;23.146;2023-03-02T09:16:03;95780.00;;;8.35;81.54
69570;BME280;56781;42.292;23.146;2023-03-02T09:18:30;95770.63;;;8.43;81.29
69570;BME280;56781;42.292;23.146;2023-03-02T09:20:57;95775.22;;;8.32;81.45
69570;BME280;56781;42.292;23.146;2023-03-02T09:23:25;95804.09;;;8.25;82.70
69570;BME280;56781;42.292;23.146;2023-03-02T09:25:53;95782.44;;;7.92;82.22
69570;BME280;56781;42.292;23.146;2023-03-02T09:28:21;95778.75;;;7.83;84.49
69570;BME280;56781;42.292;23.146;2023-03-02T09:30:53;95817.91;;;7.93;83.45
69570;BME280;56781;42.292;23.146;2023-03-02T09:33:20;95787.38;;;7.65;83.28
69570;BME280;56781;42.292;23.146;2023-03-02T09:35:48;95796.50;;;7.48;86.00
69570;BME280;56781;42.292;23.146;2023-03-02T09:38:16;95815.38;;;7.62;84.19
69570;BME280;56781;42.292;23.146;2023-03-02T09:54:10;95780.84;;;7.37;86.26
69570;BME280;56781;42.292;23.146;2023-03-02T09:56:46;95791.75;;;7.40;86.55
69570;BME280;56781;42.292;23.146;2023-03-02T10:01:52;95788.84;;;7.42;87.68
69570;BME280;56781;42.292;23.146;2023-03-02T10:04:25;95756.03;;;7.46;86.92
69570;BME280;56781;42.292;23.146;2023-03-02T10:07:09;95789.50;;;7.68;87.13
69570;BME280;56781;42.292;23.146;2023-03-02T10:09:38;95745.66;;;7.50;87.97
69570;BME280;56781;42.292;23.146;2023-03-02T10:14:48;95754.84;;;7.68;87.17
69570;BME280;56781;42.292;23.146;2023-03-02T10:20:04;95750.34;;;7.68;87.79
69570;BME280;56781;42.292;23.146;2023-03-02T10:22:38;95772.31;;;7.89;87.68
69570;BME280;56781;42.292;23.146;2023-03-02T10:25:21;95753.75;;;7.79;88.23
69570;BME280;56781;42.292;23.146;2023-03-02T10:27:59;95735.72;;;7.66;87.71
69570;BME280;56781;42.292;23.146;2023-03-02T10:30:32;95742.00;;;7.80;87.15
69570;BME280;56781;42.292;23.146;2023-03-02T10:33:18;95746.38;;;7.61;86.50
69570;BME280;56781;42.292;23.146;2023-03-02T10:35:47;95735.72;;;7.61;88.13
69570;BME280;56781;42.292;23.146;2023-03-02T10:38:21;95737.84;;;7.64;87.89
69570;BME280;56781;42.292;23.146;2023-03-02T10:43:30;95735.34;;;7.83;88.09
69570;BME280;56781;42.292;23.146;2023-03-02T10:46:07;95735.56;;;7.86;85.40
69570;BME280;56781;42.292;23.146;2023-03-02T10:51:24;95752.41;;;8.16;86.73
69570;BME280;56781;42.292;23.146;2023-03-02T10:54:11;95729.34;;;8.01;85.69
69570;BME280;56781;42.292;23.146;2023-03-02T10:56:48;95716.81;;;8.02;86.19
69570;BME280;56781;42.292;23.146;2023-03-02T11:02:01;95749.31;;;8.04;86.43
69570;BME280;56781;42.292;23.146;2023-03-02T11:04:30;95700.44;;;7.79;86.50
69570;BME280;56781;42.292;23.146;2023-03-02T11:07:08;95693.34;;;7.64;87.89
69570;BME280;56781;42.292;23.146;2023-03-02T11:09:38;95716.81;;;8.02;86.79
69570;BME280;56781;42.292;23.146;2023-03-02T11:12:13;95707.84;;;7.87;87.70
69570;BME280;56781;42.292;23.146;2023-03-02T11:14:41;95695.94;;;7.74;87.02
69570;BME280;56781;42.292;23.146;2023-03-02T11:17:34;95712.78;;;8.04;85.92
69570;BME280;56781;42.292;23.146;2023-03-02T11:20:04;95690.28;;;7.81;86.66
69570;BME280;56781;42.292;23.146;2023-03-02T11:22:40;95697.09;;;7.63;86.41
69570;BME280;56781;42.292;23.146;2023-03-02T11:25:19;95694.16;;;7.60;86.40
69570;BME280;56781;42.292;23.146;2023-03-02T11:27:51;95690.41;;;7.66;85.45
69570;BME280;56781;42.292;23.146;2023-03-02T11:30:22;95711.53;;;7.91;86.97
69570;BME280;56781;42.292;23.146;2023-03-02T11:33:03;95684.72;;;7.77;86.95
69570;BME280;56781;42.292;23.146;2023-03-02T11:35:43;95690.22;;;7.91;86.63
69570;BME280;56781;42.292;23.146;2023-03-02T11:38:25;95707.16;;;8.06;85.31
69570;BME280;56781;42.292;23.146;2023-03-02T11:41:00;95675.44;;;7.70;86.52
69570;BME280;56781;42.292;23.146;2023-03-02T11:43:29;95708.38;;;7.84;87.26
69570;BME280;56781;42.292;23.146;2023-03-02T11:45:59;95681.38;;;7.62;87.89
69570;BME280;56781;42.292;23.146;2023-03-02T11:48:46;95685.41;;;7.54;88.17
69570;BME280;56781;42.292;23.146;2023-03-02T11:51:25;95677.16;;;7.55;88.34
69570;BME280;56781;42.292;23.146;2023-03-02T11:54:02;95704.31;;;7.58;88.59
69570;BME280;56781;42.292;23.146;2023-03-02T11:56:33;95700.59;;;7.53;87.60
69570;BME280;56781;42.292;23.146;2023-03-02T11:59:09;95685.34;;;7.20;88.79
69570;BME280;56781;42.292;23.146;2023-03-02T12:01:39;95690.59;;;7.30;90.46
69570;BME280;56781;42.292;23.146;2023-03-02T12:04:09;95666.72;;;7.15;90.75
69570;BME280;56781;42.292;23.146;2023-03-02T12:06:40;95665.09;;;7.19;91.29
69570;BME280;56781;42.292;23.146;2023-03-02T12:14:54;95693.22;;;7.40;91.59
69570;BME280;56781;42.292;23.146;2023-03-02T12:17:32;95672.28;;;7.18;92.59
69570;BME280;56781;42.292;23.146;2023-03-02T12:22:34;95659.72;;;7.29;92.34
69570;BME280;56781;42.292;23.146;2023-03-02T12:25:06;95661.97;;;7.56;91.53
69570;BME280;56781;42.292;23.146;2023-03-02T12:27:37;95647.91;;;7.45;91.38
69570;BME280;56781;42.292;23.146;2023-03-02T12:30:21;95671.41;;;7.77;90.88
69570;BME280;56781;42.292;23.146;2023-03-02T12:33:14;95646.94;;;7.70;91.02
69570;BME280;56781;42.292;23.146;2023-03-02T12:35:44;95675.94;;;7.77;91.48
69570;BME280;56781;42.292;23.146;2023-03-02T12:38:32;95657.28;;;7.77;90.60
69570;BME280;56781;42.292;23.146;2023-03-02T12:41:21;95642.94;;;8.02;90.28
69570;BME280;56781;42.292;23.146;2023-03-02T12:44:01;95664.72;;;8.14;88.93
69570;BME280;56781;42.292;23.146;2023-03-02T12:46:34;95646.59;;;7.82;88.75
69570;BME280;56781;42.292;23.146;2023-03-02T12:51:58;95649.03;;;7.73;89.41
69570;BME280;56781;42.292;23.146;2023-03-02T12:54:31;95632.03;;;7.69;89.71
69570;BME280;56781;42.292;23.146;2023-03-02T12:57:15;95649.88;;;7.69;88.49
69570;BME280;56781;42.292;23.146;2023-03-02T12:59:50;95629.41;;;7.25;89.25
69570;BME280;56781;42.292;23.146;2023-03-02T13:02:20;95647.31;;;7.53;89.85
69570;BME280;56781;42.292;23.146;2023-03-02T13:05:03;95635.75;;;7.29;90.04
69570;BME280;56781;42.292;23.146;2023-03-02T13:07:43;95609.47;;;7.57;88.30
69570;BME280;56781;42.292;23.146;2023-03-02T13:10:36;95613.78;;;7.52;88.36
69570;BME280;56781;42.292;23.146;2023-03-02T13:13:25;95639.22;;;7.69;88.06
69570;BME280;56781;42.292;23.146;2023-03-02T13:15:56;95617.81;;;7.45;88.32
69570;BME280;56781;42.292;23.146;2023-03-02T13:18:31;95642.00;;;7.53;88.89
69570;BME280;56781;42.292;23.146;2023-03-02T13:21:00;95607.06;;;7.21;90.10
69570;BME280;56781;42.292;23.146;2023-03-02T13:23:29;95610.53;;;7.16;89.92
69570;BME280;56781;42.292;23.146;2023-03-02T13:25:59;95604.97;;;7.13;89.06
69570;BME280;56781;42.292;23.146;2023-03-02T13:28:32;95648.88;;;7.20;89.64
69570;BME280;56781;42.292;23.146;2023-03-02T13:31:04;95614.28;;;7.15;89.46
69570;BME280;56781;42.292;23.146;2023-03-02T13:33:33;95614.59;;;7.08;88.84
69570;BME280;56781;42.292;23.146;2023-03-02T13:36:07;95609.22;;;7.14;89.40
69570;BME280;56781;42.292;23.146;2023-03-02T13:38:37;95614.84;;;7.07;89.20
69570;BME280;56781;42.292;23.146;2023-03-02T13:41:04;95594.97;;;6.94;89.77
69570;BME280;56781;42.292;23.146;2023-03-02T13:43:39;95589.66;;;6.89;90.16
69570;BME280;56781;42.292;23.146;2023-03-02T13:46:25;95622.53;;;7.14;89.38
69570;BME280;56781;42.292;23.146;2023-03-02T13:48:57;95579.53;;;6.96;90.16
69570;BME280;56781;42.292;23.146;2023-03-02T13:51:45;95591.53;;;6.88;89.19
69570;BME280;56781;42.292;23.146;2023-03-02T13:54:21;95591.28;;;6.90;89.32
69570;BME280;56781;42.292;23.146;2023-03-02T13:56:51;95574.81;;;6.78;89.00
69570;BME280;56781;42.292;23.146;2023-03-02T13:59:20;95573.25;;;6.77;89.83